sensor_id;sensor_type;location;lat;lon;timestamp;temperature;humidity
26212;DHT22;13951;49.516;6.094;2023-03-01T00:01:45;0.50;99.90
26212;DHT22;13951;49.516;6.094;2023-03-01T00:04:18;0.50;99.90
26212;DHT22;13951;49.516;6.094;2023-03-01T00:06:51;0.50;99.90
26212;DHT22;13951;49.516;6.094;2023-03-01T00:09:24;0.50;99.90
26212;DHT22;13951;49.516;6.094;2023-03-01T00:11:56;0.50;99.90
26212;DHT22;13951;49.516;6.094;2023-03-01T00:14:29;0.50;99.90
26212;DHT22;13951;49.516;6.094;2023-03-01T00:17:02;0.50;99.90
26212;DHT22;13951;49.516;6.094;2023-03-01T00:19:35;0.50;99.90
26212;DHT22;13951;49.516;6.094;2023-03-01T00:22:07;0.40;99.90
26212;DHT22;13951;49.516;6.094;2023-03-01T00:24:40;0.40;99.90
26212;DHT22;13951;49.516;6.094;2023-03-01T00:27:13;0.40;99.90
26212;DHT22;13951;49.516;6.094;2023-03-01T00:29:46;0.40;99.90
26212;DHT22;13951;49.516;6.094;2023-03-01T00:32:18;0.30;99.90
26212;DHT22;13951;49.516;6.094;2023-03-01T00:34:51;0.30;99.90
26212;DHT22;13951;49.516;6.094;2023-03-01T00:37:28;0.30;99.90
26212;DHT22;13951;49.516;6.094;2023-03-01T00:40:00;0.30;99.90
26212;DHT22;13951;49.516;6.094;2023-03-01T00:42:33;0.30;99.90
26212;DHT22;13951;49.516;6.094;2023-03-01T00:45:06;0.30;99.90
26212;DHT22;13951;49.516;6.094;2023-03-01T00:47:40;0.20;99.90
26212;DHT22;13951;49.516;6.094;2023-03-01T00:50:13;0.20;99.90
26212;DHT22;13951;49.516;6.094;2023-03-01T00:52:46;0.20;99.90
26212;DHT22;13951;49.516;6.094;2023-03-01T00:55:19;0.20;99.90
26212;DHT22;13951;49.516;6.094;2023-03-01T00:57:52;0.20;99.90
26212;DHT22;13951;49.516;6.094;2023-03-01T01:00:24;0.20;99.90
26212;DHT22;13951;49.516;6.094;2023-03-01T01:03:00;0.20;99.90
26212;DHT22;13951;49.516;6.094;2023-03-01T01:05:34;0.20;99.90
26212;DHT22;13951;49.516;6.094;2023-03-01T01:08:07;0.20;99.90
26212;DHT22;13951;49.516;6.094;2023-03-01T01:10:40;0.20;99.90
26212;DHT22;13951;49.516;6.094;2023-03-01T01:13:13;0.20;99.90
26212;DHT22;13951;49.516;6.094;2023-03-01T01:15:45;0.20;99.90
26212;DHT22;13951;49.516;6.094;2023-03-01T01:18:18;0.20;99.90
26212;DHT22;13951;49.516;6.094;2023-03-01T01:20:51;0.20;99.90
26212;DHT22;13951;49.516;6.094;2023-03-01T01:23:24;0.20;99.90
26212;DHT22;13951;49.516;6.094;2023-03-01T01:25:57;0.20;99.90
26212;DHT22;13951;49.516;6.094;2023-03-01T01:28:30;0.10;99.90
26212;DHT22;13951;49.516;6.094;2023-03-01T01:31:04;0.20;99.90
26212;DHT22;13951;49.516;6.094;2023-03-01T01:33:37;0.10;99.90
26212;DHT22;13951;49.516;6.094;2023-03-01T01:36:10;0.10;99.90
26212;DHT22;13951;49.516;6.094;2023-03-01T01:38:43;0.10;99.90
26212;DHT22;13951;49.516;6.094;2023-03-01T01:41:17;0.10;99.90
26212;DHT22;13951;49.516;6.094;2023-03-01T01:47:05;0.00;99.90
26212;DHT22;13951;49.516;6.094;2023-03-01T01:52:24;-0.10;99.90
26212;DHT22;13951;49.516;6.094;2023-03-01T01:55:01;-0.10;99.90
26212;DHT22;13951;49.516;6.094;2023-03-01T01:57:48;-0.10;99.90
26212;DHT22;13951;49.516;6.094;2023-03-01T02:00:28;-0.10;99.90
26212;DHT22;13951;49.516;6.094;2023-03-01T02:03:04;-0.10;99.90
26212;DHT22;13951;49.516;6.094;2023-03-01T02:08:18;-0.10;99.90
26212;DHT22;13951;49.516;6.094;2023-03-01T02:10:51;-0.10;99.90
26212;DHT22;13951;49.516;6.094;2023-03-01T02:13:25;-0.10;99.90
26212;DHT22;13951;49.516;6.094;2023-03-01T02:16:03;-0.10;99.90
26212;DHT22;13951;49.516;6.094;2023-03-01T02:18:38;-0.10;99.90
26212;DHT22;13951;49.516;6.094;2023-03-01T02:21:30;-0.10;99.90
26212;DHT22;13951;49.516;6.094;2023-03-01T02:26:54;-0.10;99.90
26212;DHT22;13951;49.516;6.094;2023-03-01T02:29:28;-0.20;99.90
26212;DHT22;13951;49.516;6.094;2023-03-01T02:32:02;-0.20;99.90
26212;DHT22;13951;49.516;6.094;2023-03-01T02:34:36;-0.20;99.90
26212;DHT22;13951;49.516;6.094;2023-03-01T02:37:13;-0.30;99.90
26212;DHT22;13951;49.516;6.094;2023-03-01T02:39:48;-0.30;99.90
26212;DHT22;13951;49.516;6.094;2023-03-01T02:42:25;-0.30;99.90
26212;DHT22;13951;49.516;6.094;2023-03-01T02:44:59;-0.30;99.90
26212;DHT22;13951;49.516;6.094;2023-03-01T02:47:32;-0.30;99.90
26212;DHT22;13951;49.516;6.094;2023-03-01T02:53:04;-0.30;99.90
26212;DHT22;13951;49.516;6.094;2023-03-01T02:55:40;-0.40;99.90
26212;DHT22;13951;49.516;6.094;2023-03-01T02:58:14;-0.40;99.90
26212;DHT22;13951;49.516;6.094;2023-03-01T03:00:47;-0.40;99.90
26212;DHT22;13951;49.516;6.094;2023-03-01T03:03:22;-0.40;99.90
26212;DHT22;13951;49.516;6.094;2023-03-01T03:05:55;-0.40;99.90
26212;DHT22;13951;49.516;6.094;2023-03-01T03:08:28;-0.50;99.90
26212;DHT22;13951;49.516;6.094;2023-03-01T03:11:01;-0.50;99.90
26212;DHT22;13951;49.516;6.094;2023-03-01T03:13:34;-0.50;99.90
26212;DHT22;13951;49.516;6.094;2023-03-01T03:16:07;-0.50;99.90
26212;DHT22;13951;49.516;6.094;2023-03-01T03:18:39;-0.60;99.90
26212;DHT22;13951;49.516;6.094;2023-03-01T03:21:13;-0.50;99.90
26212;DHT22;13951;49.516;6.094;2023-03-01T03:23:46;-0.60;99.90
26212;DHT22;13951;49.516;6.094;2023-03-01T03:26:18;-0.50;99.90
26212;DHT22;13951;49.516;6.094;2023-03-01T03:28:51;-0.50;99.90
26212;DHT22;13951;49.516;6.094;2023-03-01T03:31:24;-0.50;99.90
26212;DHT22;13951;49.516;6.094;2023-03-01T03:33:57;-0.60;99.90
26212;DHT22;13951;49.516;6.094;2023-03-01T03:36:31;-0.50;99.90
26212;DHT22;13951;49.516;6.094;2023-03-01T03:39:04;-0.50;99.90
26212;DHT22;13951;49.516;6.094;2023-03-01T03:41:38;-0.60;99.90
26212;DHT22;13951;49.516;6.094;2023-03-01T03:44:10;-0.50;99.90
26212;DHT22;13951;49.516;6.094;2023-03-01T03:46:43;-0.50;99.90
26212;DHT22;13951;49.516;6.094;2023-03-01T03:49:16;-0.50;99.90
26212;DHT22;13951;49.516;6.094;2023-03-01T03:51:49;-0.50;99.90
26212;DHT22;13951;49.516;6.094;2023-03-01T03:54:21;-0.50;99.90
26212;DHT22;13951;49.516;6.094;2023-03-01T03:56:54;-0.50;99.90
26212;DHT22;13951;49.516;6.094;2023-03-01T03:59:27;-0.50;99.90
26212;DHT22;13951;49.516;6.094;2023-03-01T04:02:00;-0.60;99.90
26212;DHT22;13951;49.516;6.094;2023-03-01T04:04:32;-0.60;99.90
26212;DHT22;13951;49.516;6.094;2023-03-01T04:07:05;-0.50;99.90
26212;DHT22;13951;49.516;6.094;2023-03-01T04:09:38;-0.50;99.90
26212;DHT22;13951;49.516;6.094;2023-03-01T04:12:11;-0.40;99.90
26212;DHT22;13951;49.516;6.094;2023-03-01T04:14:43;-0.40;99.90
26212;DHT22;13951;49.516;6.094;2023-03-01T04:17:17;-0.40;99.90
26212;DHT22;13951;49.516;6.094;2023-03-01T04:19:51;-0.40;99.90
26212;DHT22;13951;49.516;6.094;2023-03-01T04:22:24;-0.40;99.90
26212;DHT22;13951;49.516;6.094;2023-03-01T04:25:02;-0.40;99.90
26212;DHT22;13951;49.516;6.094;2023-03-01T04:27:35;-0.30;99.90
26212;DHT22;13951;49.516;6.094;2023-03-01T04:30:09;-0.40;99.90
26212;DHT22;13951;49.516;6.094;2023-03-01T04:32:42;-0.40;99.90
26212;DHT22;13951;49.516;6.094;2023-03-01T04:35:15;-0.50;99.90
26212;DHT22;13951;49.516;6.094;2023-03-01T04:37:49;-0.50;99.90
26212;DHT22;13951;49.516;6.094;2023-03-01T04:40:21;-0.60;99.90
26212;DHT22;13951;49.516;6.094;2023-03-01T04:42:54;-0.60;99.90
26212;DHT22;13951;49.516;6.094;2023-03-01T04:45:27;-0.60;99.90
26212;DHT22;13951;49.516;6.094;2023-03-01T04:48:00;-0.60;99.90
26212;DHT22;13951;49.516;6.094;2023-03-01T04:50:33;-0.60;99.90
26212;DHT22;13951;49.516;6.094;2023-03-01T04:53:07;-0.70;99.90
26212;DHT22;13951;49.516;6.094;2023-03-01T04:55:39;-0.70;99.90
26212;DHT22;13951;49.516;6.094;2023-03-01T04:58:12;-0.70;99.90
26212;DHT22;13951;49.516;6.094;2023-03-01T05:00:45;-0.80;99.90
26212;DHT22;13951;49.516;6.094;2023-03-01T05:03:18;-0.70;99.90
26212;DHT22;13951;49.516;6.094;2023-03-01T05:05:52;-0.70;99.90
26212;DHT22;13951;49.516;6.094;2023-03-01T05:08:25;-0.70;99.90
26212;DHT22;13951;49.516;6.094;2023-03-01T05:10:57;-0.70;99.90
26212;DHT22;13951;49.516;6.094;2023-03-01T05:13:30;-0.70;99.90
26212;DHT22;13951;49.516;6.094;2023-03-01T05:16:04;-0.70;99.90
26212;DHT22;13951;49.516;6.094;2023-03-01T05:18:37;-0.70;99.90
26212;DHT22;13951;49.516;6.094;2023-03-01T05:21:13;-0.70;99.90
26212;DHT22;13951;49.516;6.094;2023-03-01T05:23:48;-0.70;99.90
26212;DHT22;13951;49.516;6.094;2023-03-01T05:26:21;-0.70;99.90
26212;DHT22;13951;49.516;6.094;2023-03-01T05:29:00;-0.70;99.90
26212;DHT22;13951;49.516;6.094;2023-03-01T05:31:33;-0.70;99.90
26212;DHT22;13951;49.516;6.094;2023-03-01T05:34:06;-0.70;99.90
26212;DHT22;13951;49.516;6.094;2023-03-01T05:36:38;-0.70;99.90
26212;DHT22;13951;49.516;6.094;2023-03-01T05:39:11;-0.70;99.90
26212;DHT22;13951;49.516;6.094;2023-03-01T05:41:44;-0.70;99.90
26212;DHT22;13951;49.516;6.094;2023-03-01T05:44:17;-0.70;99.90
26212;DHT22;13951;49.516;6.094;2023-03-01T05:46:50;-0.70;99.90
26212;DHT22;13951;49.516;6.094;2023-03-01T05:49:23;-0.70;99.90
26212;DHT22;13951;49.516;6.094;2023-03-01T05:51:56;-0.70;99.90
26212;DHT22;13951;49.516;6.094;2023-03-01T05:54:29;-0.70;99.90
26212;DHT22;13951;49.516;6.094;2023-03-01T05:57:02;-0.80;99.90
26212;DHT22;13951;49.516;6.094;2023-03-01T05:59:34;-0.70;99.90
26212;DHT22;13951;49.516;6.094;2023-03-01T06:02:07;-0.80;99.90
26212;DHT22;13951;49.516;6.094;2023-03-01T06:04:40;-0.80;99.90
26212;DHT22;13951;49.516;6.094;2023-03-01T06:07:13;-0.80;99.90
26212;DHT22;13951;49.516;6.094;2023-03-01T06:09:45;-0.80;99.90
26212;DHT22;13951;49.516;6.094;2023-03-01T06:12:18;-0.70;99.90
26212;DHT22;13951;49.516;6.094;2023-03-01T06:14:51;-0.70;99.90
26212;DHT22;13951;49.516;6.094;2023-03-01T06:17:24;-0.70;99.90
26212;DHT22;13951;49.516;6.094;2023-03-01T06:19:57;-0.70;99.90
26212;DHT22;13951;49.516;6.094;2023-03-01T06:22:30;-0.70;99.90
26212;DHT22;13951;49.516;6.094;2023-03-01T06:25:03;-0.70;99.90
26212;DHT22;13951;49.516;6.094;2023-03-01T06:27:36;-0.70;99.90
26212;DHT22;13951;49.516;6.094;2023-03-01T06:30:10;-0.60;99.90
26212;DHT22;13951;49.516;6.094;2023-03-01T06:32:44;-0.60;99.90
26212;DHT22;13951;49.516;6.094;2023-03-01T06:35:18;-0.60;99.90
26212;DHT22;13951;49.516;6.094;2023-03-01T06:37:51;-0.50;99.90
26212;DHT22;13951;49.516;6.094;2023-03-01T06:40:24;-0.50;99.90
26212;DHT22;13951;49.516;6.094;2023-03-01T06:42:58;-0.50;99.90
26212;DHT22;13951;49.516;6.094;2023-03-01T06:45:32;-0.40;99.90
26212;DHT22;13951;49.516;6.094;2023-03-01T06:48:06;-0.40;99.90
26212;DHT22;13951;49.516;6.094;2023-03-01T06:50:38;-0.40;99.90
26212;DHT22;13951;49.516;6.094;2023-03-01T06:53:11;-0.40;99.90
26212;DHT22;13951;49.516;6.094;2023-03-01T06:55:44;-0.40;99.90
26212;DHT22;13951;49.516;6.094;2023-03-01T06:58:17;-0.40;99.90
26212;DHT22;13951;49.516;6.094;2023-03-01T07:00:51;-0.40;99.90
26212;DHT22;13951;49.516;6.094;2023-03-01T07:03:23;-0.40;99.90
26212;DHT22;13951;49.516;6.094;2023-03-01T07:05:56;-0.30;99.90
26212;DHT22;13951;49.516;6.094;2023-03-01T07:08:29;-0.30;99.90
26212;DHT22;13951;49.516;6.094;2023-03-01T07:11:02;-0.30;99.90
26212;DHT22;13951;49.516;6.094;2023-03-01T07:13:35;-0.30;99.90
26212;DHT22;13951;49.516;6.094;2023-03-01T07:16:08;-0.30;99.90
26212;DHT22;13951;49.516;6.094;2023-03-01T07:18:42;-0.30;99.90
26212;DHT22;13951;49.516;6.094;2023-03-01T07:21:15;-0.30;99.90
26212;DHT22;13951;49.516;6.094;2023-03-01T07:23:48;-0.30;99.90
26212;DHT22;13951;49.516;6.094;2023-03-01T07:26:21;-0.30;99.90
26212;DHT22;13951;49.516;6.094;2023-03-01T07:28:59;-0.30;99.90
26212;DHT22;13951;49.516;6.094;2023-03-01T07:31:32;-0.30;99.90
26212;DHT22;13951;49.516;6.094;2023-03-01T07:34:05;-0.30;99.90
26212;DHT22;13951;49.516;6.094;2023-03-01T07:36:38;-0.30;99.90
26212;DHT22;13951;49.516;6.094;2023-03-01T07:39:12;-0.30;99.90
26212;DHT22;13951;49.516;6.094;2023-03-01T07:41:44;-0.30;99.90
26212;DHT22;13951;49.516;6.094;2023-03-01T07:44:17;-0.20;99.90
26212;DHT22;13951;49.516;6.094;2023-03-01T07:46:50;-0.20;99.90
26212;DHT22;13951;49.516;6.094;2023-03-01T07:49:24;-0.20;99.90
26212;DHT22;13951;49.516;6.094;2023-03-01T07:51:58;-0.20;99.90
26212;DHT22;13951;49.516;6.094;2023-03-01T07:54:31;-0.10;99.90
26212;DHT22;13951;49.516;6.094;2023-03-01T07:57:04;0.00;99.90
26212;DHT22;13951;49.516;6.094;2023-03-01T07:59:37;0.00;99.90
26212;DHT22;13951;49.516;6.094;2023-03-01T08:02:10;0.10;99.90
26212;DHT22;13951;49.516;6.094;2023-03-01T08:04:43;0.10;99.90
26212;DHT22;13951;49.516;6.094;2023-03-01T08:07:16;0.20;99.90
26212;DHT22;13951;49.516;6.094;2023-03-01T08:09:49;0.20;99.90
26212;DHT22;13951;49.516;6.094;2023-03-01T08:12:22;0.20;99.90
26212;DHT22;13951;49.516;6.094;2023-03-01T08:14:54;0.20;99.90
26212;DHT22;13951;49.516;6.094;2023-03-01T08:17:27;0.20;99.90
26212;DHT22;13951;49.516;6.094;2023-03-01T08:20:00;0.30;99.90
26212;DHT22;13951;49.516;6.094;2023-03-01T08:22:32;0.30;99.90
26212;DHT22;13951;49.516;6.094;2023-03-01T08:25:05;0.30;99.90
26212;DHT22;13951;49.516;6.094;2023-03-01T08:27:38;0.40;99.90
26212;DHT22;13951;49.516;6.094;2023-03-01T08:30:11;0.40;99.90
26212;DHT22;13951;49.516;6.094;2023-03-01T08:32:44;0.50;99.90
26212;DHT22;13951;49.516;6.094;2023-03-01T08:35:17;0.50;99.90
26212;DHT22;13951;49.516;6.094;2023-03-01T08:37:50;0.60;99.90
26212;DHT22;13951;49.516;6.094;2023-03-01T08:40:23;0.70;99.90
26212;DHT22;13951;49.516;6.094;2023-03-01T08:42:55;0.80;99.90
26212;DHT22;13951;49.516;6.094;2023-03-01T08:45:30;0.90;99.90
26212;DHT22;13951;49.516;6.094;2023-03-01T08:48:03;0.90;99.90
26212;DHT22;13951;49.516;6.094;2023-03-01T08:50:35;1.00;99.90
26212;DHT22;13951;49.516;6.094;2023-03-01T08:53:08;1.00;99.90
26212;DHT22;13951;49.516;6.094;2023-03-01T08:55:41;1.20;99.90
26212;DHT22;13951;49.516;6.094;2023-03-01T08:58:14;1.30;99.90
26212;DHT22;13951;49.516;6.094;2023-03-01T09:00:46;1.50;99.90
26212;DHT22;13951;49.516;6.094;2023-03-01T09:03:19;1.60;99.90
26212;DHT22;13951;49.516;6.094;2023-03-01T09:05:52;1.70;99.90
26212;DHT22;13951;49.516;6.094;2023-03-01T09:08:25;1.80;99.90
26212;DHT22;13951;49.516;6.094;2023-03-01T09:11:02;1.80;99.90
26212;DHT22;13951;49.516;6.094;2023-03-01T09:13:35;1.80;99.90
26212;DHT22;13951;49.516;6.094;2023-03-01T09:16:08;1.80;99.90
26212;DHT22;13951;49.516;6.094;2023-03-01T09:18:41;1.90;99.90
26212;DHT22;13951;49.516;6.094;2023-03-01T09:21:16;1.90;99.90
26212;DHT22;13951;49.516;6.094;2023-03-01T09:23:57;2.00;99.90
26212;DHT22;13951;49.516;6.094;2023-03-01T09:26:32;2.10;99.90
26212;DHT22;13951;49.516;6.094;2023-03-01T09:29:05;2.20;99.90
26212;DHT22;13951;49.516;6.094;2023-03-01T09:31:38;2.30;99.90
26212;DHT22;13951;49.516;6.094;2023-03-01T09:34:11;2.50;99.90
26212;DHT22;13951;49.516;6.094;2023-03-01T09:36:44;2.60;99.90
26212;DHT22;13951;49.516;6.094;2023-03-01T09:39:17;2.80;99.90
26212;DHT22;13951;49.516;6.094;2023-03-01T09:41:59;2.80;99.90
26212;DHT22;13951;49.516;6.094;2023-03-01T09:45:04;2.90;99.90
26212;DHT22;13951;49.516;6.094;2023-03-01T09:47:44;3.00;99.90
26212;DHT22;13951;49.516;6.094;2023-03-01T09:50:21;3.10;99.90
26212;DHT22;13951;49.516;6.094;2023-03-01T09:53:02;3.10;99.90
26212;DHT22;13951;49.516;6.094;2023-03-01T10:01:10;3.20;99.90
26212;DHT22;13951;49.516;6.094;2023-03-01T10:09:37;3.30;99.90
26212;DHT22;13951;49.516;6.094;2023-03-01T10:12:15;3.40;99.90
26212;DHT22;13951;49.516;6.094;2023-03-01T10:17:58;3.50;99.90
26212;DHT22;13951;49.516;6.094;2023-03-01T10:23:26;3.60;99.90
26212;DHT22;13951;49.516;6.094;2023-03-01T10:26:09;3.70;99.90
26212;DHT22;13951;49.516;6.094;2023-03-01T10:29:10;3.80;99.90
26212;DHT22;13951;49.516;6.094;2023-03-01T10:31:51;3.70;99.90
26212;DHT22;13951;49.516;6.094;2023-03-01T10:34:33;3.70;99.90
26212;DHT22;13951;49.516;6.094;2023-03-01T10:37:11;3.80;99.90
26212;DHT22;13951;49.516;6.094;2023-03-01T10:42:39;4.10;99.90
26212;DHT22;13951;49.516;6.094;2023-03-01T10:45:36;4.10;99.90
26212;DHT22;13951;49.516;6.094;2023-03-01T10:48:16;4.20;99.90
26212;DHT22;13951;49.516;6.094;2023-03-01T10:51:05;4.40;99.90
26212;DHT22;13951;49.516;6.094;2023-03-01T10:53:41;4.60;99.90
26212;DHT22;13951;49.516;6.094;2023-03-01T10:56:15;4.80;99.90
26212;DHT22;13951;49.516;6.094;2023-03-01T10:59:00;5.00;99.90
26212;DHT22;13951;49.516;6.094;2023-03-01T11:01:35;5.20;99.90
26212;DHT22;13951;49.516;6.094;2023-03-01T11:04:12;5.40;99.90
26212;DHT22;13951;49.516;6.094;2023-03-01T11:06:58;5.50;99.90
26212;DHT22;13951;49.516;6.094;2023-03-01T11:09:33;5.70;99.90
26212;DHT22;13951;49.516;6.094;2023-03-01T11:12:19;5.80;99.90
26212;DHT22;13951;49.516;6.094;2023-03-01T11:14:54;5.90;99.90
26212;DHT22;13951;49.516;6.094;2023-03-01T11:17:30;5.90;99.90
26212;DHT22;13951;49.516;6.094;2023-03-01T11:22:58;6.00;99.90
26212;DHT22;13951;49.516;6.094;2023-03-01T11:25:42;6.10;99.90
26212;DHT22;13951;49.516;6.094;2023-03-01T11:28:17;6.40;99.90
26212;DHT22;13951;49.516;6.094;2023-03-01T11:31:04;6.60;99.90
26212;DHT22;13951;49.516;6.094;2023-03-01T11:33:56;6.70;99.90
26212;DHT22;13951;49.516;6.094;2023-03-01T11:36:50;6.80;99.90
26212;DHT22;13951;49.516;6.094;2023-03-01T11:40:26;7.00;99.90
26212;DHT22;13951;49.516;6.094;2023-03-01T11:43:01;7.10;99.90
26212;DHT22;13951;49.516;6.094;2023-03-01T11:48:56;7.70;99.90
26212;DHT22;13951;49.516;6.094;2023-03-01T11:51:55;7.90;99.90
26212;DHT22;13951;49.516;6.094;2023-03-01T11:55:07;8.20;99.90
26212;DHT22;13951;49.516;6.094;2023-03-01T12:00:57;8.40;99.90
26212;DHT22;13951;49.516;6.094;2023-03-01T12:04:15;8.60;99.90
26212;DHT22;13951;49.516;6.094;2023-03-01T12:07:10;8.90;99.90
26212;DHT22;13951;49.516;6.094;2023-03-01T12:24:16;10.50;95.30
26212;DHT22;13951;49.516;6.094;2023-03-01T12:27:11;10.90;94.20
26212;DHT22;13951;49.516;6.094;2023-03-01T12:39:15;11.90;90.30
26212;DHT22;13951;49.516;6.094;2023-03-01T12:42:27;12.20;89.50
26212;DHT22;13951;49.516;6.094;2023-03-01T12:48:05;11.80;88.20
26212;DHT22;13951;49.516;6.094;2023-03-01T12:50:46;11.70;87.70
26212;DHT22;13951;49.516;6.094;2023-03-01T12:53:30;11.60;87.90
26212;DHT22;13951;49.516;6.094;2023-03-01T12:56:09;11.60;88.60
26212;DHT22;13951;49.516;6.094;2023-03-01T13:02:26;12.10;85.90
26212;DHT22;13951;49.516;6.094;2023-03-01T13:05:35;12.10;85.90
26212;DHT22;13951;49.516;6.094;2023-03-01T13:08:19;12.30;83.90
26212;DHT22;13951;49.516;6.094;2023-03-01T13:10:58;12.20;83.90
26212;DHT22;13951;49.516;6.094;2023-03-01T13:13:32;12.10;83.70
26212;DHT22;13951;49.516;6.094;2023-03-01T13:16:38;12.00;83.40
26212;DHT22;13951;49.516;6.094;2023-03-01T13:19:25;11.90;84.10
26212;DHT22;13951;49.516;6.094;2023-03-01T13:21:59;11.70;84.40
26212;DHT22;13951;49.516;6.094;2023-03-01T13:24:38;11.40;84.60
26212;DHT22;13951;49.516;6.094;2023-03-01T13:30:00;10.00;89.40
26212;DHT22;13951;49.516;6.094;2023-03-01T13:32:40;9.30;90.80
26212;DHT22;13951;49.516;6.094;2023-03-01T13:37:53;8.50;92.40
26212;DHT22;13951;49.516;6.094;2023-03-01T13:43:42;8.00;93.60
26212;DHT22;13951;49.516;6.094;2023-03-01T13:46:21;7.90;93.90
26212;DHT22;13951;49.516;6.094;2023-03-01T13:48:56;7.80;94.00
26212;DHT22;13951;49.516;6.094;2023-03-01T13:51:30;7.60;94.70
26212;DHT22;13951;49.516;6.094;2023-03-01T13:54:04;7.60;94.80
26212;DHT22;13951;49.516;6.094;2023-03-01T13:56:37;7.50;95.10
26212;DHT22;13951;49.516;6.094;2023-03-01T13:59:18;7.50;95.20
26212;DHT22;13951;49.516;6.094;2023-03-01T14:01:56;7.40;95.60
26212;DHT22;13951;49.516;6.094;2023-03-01T14:04:32;7.40;95.80
26212;DHT22;13951;49.516;6.094;2023-03-01T14:09:44;7.40;95.90
26212;DHT22;13951;49.516;6.094;2023-03-01T14:15:04;7.40;95.90
26212;DHT22;13951;49.516;6.094;2023-03-01T14:20:31;7.30;96.40
26212;DHT22;13951;49.516;6.094;2023-03-01T14:23:11;7.40;96.20
26212;DHT22;13951;49.516;6.094;2023-03-01T14:25:54;7.30;96.20
26212;DHT22;13951;49.516;6.094;2023-03-01T14:28:29;7.30;96.40
26212;DHT22;13951;49.516;6.094;2023-03-01T14:31:04;7.30;96.90
26212;DHT22;13951;49.516;6.094;2023-03-01T14:33:58;7.20;97.10
26212;DHT22;13951;49.516;6.094;2023-03-01T14:36:33;7.20;97.20
26212;DHT22;13951;49.516;6.094;2023-03-01T14:39:17;7.30;97.20
26212;DHT22;13951;49.516;6.094;2023-03-01T14:41:50;7.20;97.10
26212;DHT22;13951;49.516;6.094;2023-03-01T14:44:24;7.20;97.10
26212;DHT22;13951;49.516;6.094;2023-03-01T14:46:57;7.10;97.30
26212;DHT22;13951;49.516;6.094;2023-03-01T14:49:31;7.10;97.10
26212;DHT22;13951;49.516;6.094;2023-03-01T14:52:07;7.00;97.50
26212;DHT22;13951;49.516;6.094;2023-03-01T14:54:41;6.90;97.70
26212;DHT22;13951;49.516;6.094;2023-03-01T14:57:17;6.90;98.00
26212;DHT22;13951;49.516;6.094;2023-03-01T14:59:57;6.90;98.10
26212;DHT22;13951;49.516;6.094;2023-03-01T15:02:31;6.90;98.20
26212;DHT22;13951;49.516;6.094;2023-03-01T15:05:05;6.80;98.20
26212;DHT22;13951;49.516;6.094;2023-03-01T15:07:42;6.80;98.50
26212;DHT22;13951;49.516;6.094;2023-03-01T15:10:27;6.90;98.90
26212;DHT22;13951;49.516;6.094;2023-03-01T15:13:23;6.80;98.30
26212;DHT22;13951;49.516;6.094;2023-03-01T15:16:04;6.80;98.60
26212;DHT22;13951;49.516;6.094;2023-03-01T15:18:44;6.80;98.70
26212;DHT22;13951;49.516;6.094;2023-03-01T15:21:33;6.80;98.70
26212;DHT22;13951;49.516;6.094;2023-03-01T15:26:56;6.70;99.00
26212;DHT22;13951;49.516;6.094;2023-03-01T15:29:34;6.70;99.30
26212;DHT22;13951;49.516;6.094;2023-03-01T15:32:30;6.70;99.50
26212;DHT22;13951;49.516;6.094;2023-03-01T15:35:41;6.70;99.20
26212;DHT22;13951;49.516;6.094;2023-03-01T15:41:04;6.80;99.70
26212;DHT22;13951;49.516;6.094;2023-03-01T15:43:46;6.80;99.70
26212;DHT22;13951;49.516;6.094;2023-03-01T15:46:34;6.70;99.80
26212;DHT22;13951;49.516;6.094;2023-03-01T15:49:41;6.70;99.90
26212;DHT22;13951;49.516;6.094;2023-03-01T15:52:34;6.70;99.90
26212;DHT22;13951;49.516;6.094;2023-03-01T15:55:23;6.70;99.90
26212;DHT22;13951;49.516;6.094;2023-03-01T15:58:00;6.70;99.90
26212;DHT22;13951;49.516;6.094;2023-03-01T16:00:33;6.70;99.90
26212;DHT22;13951;49.516;6.094;2023-03-01T16:03:06;6.70;99.90
26212;DHT22;13951;49.516;6.094;2023-03-01T16:05:41;6.70;99.90
26212;DHT22;13951;49.516;6.094;2023-03-01T16:08:14;6.60;99.90
26212;DHT22;13951;49.516;6.094;2023-03-01T16:10:48;6.60;99.90
26212;DHT22;13951;49.516;6.094;2023-03-01T16:13:23;6.60;99.90
26212;DHT22;13951;49.516;6.094;2023-03-01T16:16:03;6.50;99.90
26212;DHT22;13951;49.516;6.094;2023-03-01T16:18:36;6.50;99.90
26212;DHT22;13951;49.516;6.094;2023-03-01T16:21:17;6.50;99.90
26212;DHT22;13951;49.516;6.094;2023-03-01T16:23:51;6.50;99.90
26212;DHT22;13951;49.516;6.094;2023-03-01T16:26:24;6.50;99.90
26212;DHT22;13951;49.516;6.094;2023-03-01T16:28:57;6.50;99.90
26212;DHT22;13951;49.516;6.094;2023-03-01T16:31:30;6.40;99.90
26212;DHT22;13951;49.516;6.094;2023-03-01T16:34:04;6.40;99.90
26212;DHT22;13951;49.516;6.094;2023-03-01T16:36:42;6.30;99.90
26212;DHT22;13951;49.516;6.094;2023-03-01T16:39:15;6.30;99.90
26212;DHT22;13951;49.516;6.094;2023-03-01T16:41:48;6.30;99.90
26212;DHT22;13951;49.516;6.094;2023-03-01T16:44:21;6.30;99.90
26212;DHT22;13951;49.516;6.094;2023-03-01T16:46:54;6.30;99.90
26212;DHT22;13951;49.516;6.094;2023-03-01T16:49:27;6.30;99.90
26212;DHT22;13951;49.516;6.094;2023-03-01T16:51:59;6.20;99.90
26212;DHT22;13951;49.516;6.094;2023-03-01T16:54:32;6.10;99.90
26212;DHT22;13951;49.516;6.094;2023-03-01T16:57:05;6.10;99.90
26212;DHT22;13951;49.516;6.094;2023-03-01T16:59:37;6.10;99.90
26212;DHT22;13951;49.516;6.094;2023-03-01T17:02:11;6.00;99.90
26212;DHT22;13951;49.516;6.094;2023-03-01T17:04:45;6.00;99.90
26212;DHT22;13951;49.516;6.094;2023-03-01T17:07:18;5.90;99.90
26212;DHT22;13951;49.516;6.094;2023-03-01T17:09:50;5.80;99.90
26212;DHT22;13951;49.516;6.094;2023-03-01T17:12:23;5.80;99.90
26212;DHT22;13951;49.516;6.094;2023-03-01T17:14:59;5.70;99.90
26212;DHT22;13951;49.516;6.094;2023-03-01T17:17:32;5.70;99.90
26212;DHT22;13951;49.516;6.094;2023-03-01T17:20:05;5.60;99.90
26212;DHT22;13951;49.516;6.094;2023-03-01T17:22:38;5.50;99.90
26212;DHT22;13951;49.516;6.094;2023-03-01T17:25:11;5.50;99.90
26212;DHT22;13951;49.516;6.094;2023-03-01T17:27:44;5.40;99.90
26212;DHT22;13951;49.516;6.094;2023-03-01T17:30:17;5.40;99.90
26212;DHT22;13951;49.516;6.094;2023-03-01T17:32:50;5.40;99.90
26212;DHT22;13951;49.516;6.094;2023-03-01T17:35:27;5.30;99.90
26212;DHT22;13951;49.516;6.094;2023-03-01T17:38:06;5.30;99.90
26212;DHT22;13951;49.516;6.094;2023-03-01T17:40:39;5.30;99.90
26212;DHT22;13951;49.516;6.094;2023-03-01T17:43:12;5.30;99.90
26212;DHT22;13951;49.516;6.094;2023-03-01T17:45:45;5.20;99.90
26212;DHT22;13951;49.516;6.094;2023-03-01T17:48:23;5.20;99.90
26212;DHT22;13951;49.516;6.094;2023-03-01T17:50:55;5.10;99.90
26212;DHT22;13951;49.516;6.094;2023-03-01T17:53:28;5.10;99.90
26212;DHT22;13951;49.516;6.094;2023-03-01T17:56:03;5.10;99.90
26212;DHT22;13951;49.516;6.094;2023-03-01T17:58:36;5.10;99.90
26212;DHT22;13951;49.516;6.094;2023-03-01T18:01:14;5.00;99.90
26212;DHT22;13951;49.516;6.094;2023-03-01T18:03:49;5.00;99.90
26212;DHT22;13951;49.516;6.094;2023-03-01T18:06:23;5.00;99.90
26212;DHT22;13951;49.516;6.094;2023-03-01T18:08:56;4.90;99.90
26212;DHT22;13951;49.516;6.094;2023-03-01T18:11:29;4.90;99.90
26212;DHT22;13951;49.516;6.094;2023-03-01T18:14:05;4.80;99.90